createdAt,value
2017-05-11T00:07:46.864Z,88.6
2017-05-11T00:17:57.784Z,89.7
2017-05-11T00:28:08.690Z,90.5
2017-05-11T00:38:19.702Z,91.8
2017-05-11T00:48:30.543Z,92.8
2017-05-11T00:58:41.494Z,94.7
2017-05-11T01:08:52.497Z,96.9
2017-05-11T01:19:03.523Z,97.3
2017-05-11T01:29:14.666Z,98.2
2017-05-11T01:39:25.835Z,97.9
2017-05-11T01:49:36.996Z,99
2017-05-11T01:59:48.140Z,98.9
2017-05-11T02:09:59.349Z,99.2
2017-05-11T02:20:10.523Z,99.5
2017-05-11T02:30:21.676Z,99.3
2017-05-11T02:40:32.947Z,100
2017-05-11T02:50:44.192Z,100
2017-05-11T03:00:55.375Z,100
2017-05-11T03:11:06.548Z,100
2017-05-11T03:21:17.745Z,100
2017-05-11T03:31:29.024Z,100
2017-05-11T03:41:40.394Z,100
2017-05-11T03:51:51.625Z,100
2017-05-11T04:02:02.960Z,100
2017-05-11T04:12:14.268Z,100
2017-05-11T04:22:25.367Z,100
2017-05-11T04:32:36.338Z,99.8
2017-05-11T04:42:47.112Z,97.7
2017-05-11T04:52:57.751Z,96.6
2017-05-11T05:03:08.270Z,95
2017-05-11T05:13:18.612Z,92.9
2017-05-11T05:23:28.825Z,90.9
2017-05-11T05:33:38.874Z,88.9
2017-05-11T05:43:48.836Z,87.8
2017-05-11T05:53:58.689Z,85.7
2017-05-11T06:04:08.450Z,84.1
2017-05-11T06:14:18.079Z,81.2
2017-05-11T06:24:27.649Z,79.5
2017-05-11T06:34:37.163Z,76.2
2017-05-11T06:44:46.571Z,74.6
2017-05-11T06:54:55.826Z,71.4
2017-05-11T07:05:04.954Z,69.8
2017-05-11T07:15:13.982Z,68.8
2017-05-11T07:25:22.905Z,65.5
2017-05-11T07:35:31.793Z,64.2
2017-05-11T07:45:40.655Z,62.4
2017-05-11T07:55:49.490Z,62.3
2017-05-11T08:05:58.202Z,58.8
2017-05-11T08:16:06.738Z,56.8
2017-05-11T08:26:15.177Z,56
2017-05-11T08:36:23.533Z,55.1
2017-05-11T08:46:31.808Z,53
2017-05-11T08:56:39.998Z,51.7
2017-05-11T09:06:48.005Z,50.6
2017-05-11T09:16:55.994Z,50.4
2017-05-11T09:27:03.923Z,47.9
2017-05-11T09:37:11.748Z,46.2
2017-05-11T09:47:19.589Z,44.2
2017-05-11T09:57:27.428Z,44.1
2017-05-11T10:07:35.165Z,42.7
2017-05-11T10:17:42.841Z,43.5
2017-05-11T10:27:50.539Z,43.2
2017-05-11T10:37:58.183Z,42.1
2017-05-11T10:48:05.831Z,41.9
2017-05-11T10:58:13.507Z,41.5
2017-05-11T11:08:21.325Z,41
2017-05-11T11:18:28.904Z,39.9
2017-05-11T11:28:36.564Z,39.5
2017-05-11T11:38:44.149Z,38.8
2017-05-11T11:48:51.664Z,39
2017-05-11T11:58:59.236Z,37.1
2017-05-11T12:09:06.673Z,37.1
2017-05-11T12:19:14.105Z,35.6
2017-05-11T12:29:21.409Z,36.8
2017-05-11T12:39:28.796Z,37.7
2017-05-11T12:49:36.313Z,38.8
2017-05-11T12:59:43.955Z,38.9
2017-05-11T13:09:51.589Z,39.4
2017-05-11T13:19:59.126Z,40.6
2017-05-11T13:30:06.775Z,41.1
2017-05-11T13:40:14.485Z,40.3
2017-05-11T13:50:22.161Z,39.8
2017-05-11T14:00:29.794Z,41.4
2017-05-11T14:10:37.444Z,42.3
2017-05-11T14:20:45.166Z,41.3
2017-05-11T14:30:52.954Z,40.1
2017-05-11T14:41:00.838Z,39.2
2017-05-11T14:51:08.712Z,37.4
2017-05-11T15:01:16.348Z,37.2
2017-05-11T15:11:24.006Z,38
2017-05-11T15:21:31.926Z,38.1
2017-05-11T15:31:39.967Z,38.2
2017-05-11T15:41:48.087Z,38.6
2017-05-11T15:51:56.234Z,39.2
2017-05-11T16:02:04.428Z,39.6
2017-05-11T16:12:12.616Z,39.5
2017-05-11T16:22:20.835Z,39.4
2017-05-11T16:32:29.047Z,39.4
2017-05-11T16:42:37.194Z,41.2
2017-05-11T16:52:45.386Z,42
2017-05-11T17:02:53.457Z,42.4
2017-05-11T17:13:01.426Z,41.9
2017-05-11T17:23:09.372Z,44.1
2017-05-11T17:33:17.634Z,45.7
2017-05-11T17:43:26.034Z,45.4
2017-05-11T17:53:34.459Z,45.9
2017-05-11T18:03:43.002Z,46.8
2017-05-11T18:13:51.610Z,48
2017-05-11T18:24:00.301Z,48.9
2017-05-11T18:34:09.022Z,50.1
2017-05-11T18:44:17.910Z,51.3
2017-05-11T18:54:26.951Z,53.4
2017-05-11T19:04:36.116Z,55.8
2017-05-11T19:10:29.814Z,57.9
2017-05-11T19:10:56.973Z,58.3
2017-05-11T19:12:46.357Z,58.8
2017-05-11T19:13:40.824Z,59.4
2017-05-11T19:20:01.539Z,61.9
2017-05-11T19:21:47.043Z,62.1
2017-05-11T19:22:02.878Z,61.9
2017-05-11T19:22:18.298Z,61.8
2017-05-11T19:22:49.618Z,62
2017-05-11T19:23:07.603Z,62.1
2017-05-11T19:23:22.195Z,62
2017-05-11T19:23:38.374Z,62.2
2017-05-11T19:24:43.490Z,61.9
2017-05-11T19:34:52.554Z,61
2017-05-11T19:45:01.662Z,61.4
2017-05-11T19:55:10.830Z,62.1
2017-05-11T20:05:19.981Z,64.2
2017-05-11T20:15:29.121Z,65
2017-05-11T20:25:38.306Z,65.8
2017-05-11T20:35:47.432Z,66
2017-05-11T20:45:56.572Z,64.4
2017-05-11T20:56:05.720Z,64.7
2017-05-11T21:06:14.953Z,62.7
2017-05-11T21:16:24.119Z,63.1
2017-05-11T21:26:33.333Z,62.3
2017-05-11T21:36:42.550Z,62.9
2017-05-11T21:46:51.779Z,63.4
2017-05-11T21:57:01.049Z,64.1
2017-05-11T22:07:10.331Z,64.7
2017-05-11T22:17:19.668Z,65.8
2017-05-11T22:27:29.058Z,67.7
2017-05-11T22:37:38.511Z,67.9
2017-05-11T22:47:47.974Z,69
2017-05-11T22:57:57.448Z,68.8
2017-05-11T23:08:06.902Z,70.5
2017-05-11T23:18:16.451Z,71.6
2017-05-11T23:28:26.036Z,72.5
2017-05-11T23:38:35.611Z,74.2
2017-05-11T23:48:45.195Z,75.4
2017-05-11T23:58:54.728Z,76
